createdAt,value
2019-03-08T00:00:39.441Z,76.28
2019-03-08T00:01:39.455Z,77.20
2019-03-08T00:02:39.421Z,76.82
2019-03-08T00:03:39.412Z,76.82
2019-03-08T00:04:39.411Z,77.13
2019-03-08T00:05:39.385Z,77.65
2019-03-08T00:06:39.374Z,77.03
2019-03-08T00:07:39.403Z,77.65
2019-03-08T00:08:39.356Z,77.65
2019-03-08T00:09:39.355Z,77.78
2019-03-08T00:10:39.331Z,77.99
2019-03-08T00:11:39.322Z,77.03
2019-03-08T00:12:39.311Z,77.37
2019-03-08T00:13:39.327Z,76.93
2019-03-08T00:14:39.299Z,76.42
2019-03-08T00:15:39.277Z,77.23
2019-03-08T00:16:39.266Z,77.23
2019-03-08T00:17:39.256Z,77.23
2019-03-08T00:18:39.254Z,77.23
2019-03-08T00:19:39.277Z,77.48
2019-03-08T00:20:39.226Z,77.44
2019-03-08T00:21:39.213Z,77.68
2019-03-08T00:22:39.202Z,78.20
2019-03-08T00:23:39.190Z,78.71
2019-03-08T00:24:39.191Z,78.71
2019-03-08T00:25:39.181Z,79.33
2019-03-08T00:26:39.157Z,80.05
2019-03-08T00:27:39.151Z,79.53
2019-03-08T00:28:39.140Z,79.16
2019-03-08T00:29:39.137Z,79.02
2019-03-08T00:30:39.115Z,79.12
2019-03-08T00:31:39.125Z,78.92
2019-03-08T00:32:39.098Z,79.02
2019-03-08T00:33:39.085Z,79.02
2019-03-08T00:34:39.084Z,79.12
2019-03-08T00:35:39.063Z,78.30
2019-03-08T00:36:39.051Z,77.89
2019-03-08T00:37:39.074Z,77.48
2019-03-08T00:38:39.029Z,77.99
2019-03-08T00:39:39.028Z,77.68
2019-03-08T00:40:39.006Z,77.27
2019-03-08T00:41:39.003Z,76.97
2019-03-08T00:42:38.984Z,77.99
2019-03-08T00:43:38.975Z,78.13
2019-03-08T00:44:38.993Z,78.20
2019-03-08T00:45:38.964Z,79.05
2019-03-08T00:46:38.941Z,79.02
2019-03-08T00:47:38.931Z,79.33
2019-03-08T00:48:38.920Z,79.88
2019-03-08T00:49:38.940Z,80.49
2019-03-08T00:50:38.917Z,81.11
2019-03-08T00:51:38.887Z,81.21
2019-03-08T00:52:38.891Z,81.01
2019-03-08T00:53:38.865Z,81.73
2019-03-08T00:54:38.855Z,81.93
2019-03-08T00:55:38.856Z,82.76
2019-03-08T00:56:39.737Z,82.76
2019-03-08T00:57:38.826Z,82.86
2019-03-08T00:58:38.812Z,83.17
2019-03-08T00:59:38.800Z,82.96
2019-03-08T01:00:38.800Z,83.17
2019-03-08T01:01:38.779Z,83.58
2019-03-08T01:02:38.784Z,83.83
2019-03-08T01:03:38.756Z,84.03
2019-03-08T01:04:38.747Z,84.64
2019-03-08T01:05:38.746Z,85.36
2019-03-08T01:06:38.727Z,86.19
2019-03-08T01:07:38.713Z,87.63
2019-03-08T01:08:38.727Z,88.18
2019-03-08T01:09:38.710Z,87.98
2019-03-08T01:10:38.691Z,87.87
2019-03-08T01:11:38.671Z,88.08
2019-03-08T01:12:38.668Z,89.22
2019-03-08T01:13:38.650Z,89.42
2019-03-08T01:14:38.643Z,89.36
2019-03-08T01:15:38.673Z,89.36
2019-03-08T01:16:38.615Z,89.15
2019-03-08T01:17:38.605Z,88.70
2019-03-08T01:18:38.597Z,88.59
2019-03-08T01:19:38.586Z,88.23
2019-03-08T01:20:38.590Z,88.08
2019-03-08T01:21:38.578Z,87.57
2019-03-08T01:22:38.577Z,88.18
2019-03-08T01:23:38.539Z,87.26
2019-03-08T01:24:38.531Z,86.64
2019-03-08T01:25:38.530Z,86.64
2019-03-08T01:26:38.507Z,86.40
2019-03-08T01:27:38.501Z,86.33
2019-03-08T01:28:38.504Z,86.60
2019-03-08T01:29:38.475Z,86.64
2019-03-08T01:30:38.478Z,86.43
2019-03-08T01:31:38.462Z,85.51
2019-03-08T01:32:38.448Z,85.41
2019-03-08T01:33:38.432Z,85.06
2019-03-08T01:34:38.447Z,84.85
2019-03-08T01:35:38.423Z,85.06
2019-03-08T01:36:38.399Z,84.85
2019-03-08T01:37:38.395Z,83.62
2019-03-08T01:38:38.382Z,83.48
2019-03-08T01:39:38.367Z,83.48
2019-03-08T01:40:38.389Z,83.27
2019-03-08T01:41:38.344Z,83.27
2019-03-08T01:42:38.334Z,83.27
2019-03-08T01:43:38.324Z,82.65
2019-03-08T01:44:38.314Z,83.17
2019-03-08T01:45:38.324Z,82.65
2019-03-08T01:46:38.301Z,82.76
2019-03-08T01:47:38.281Z,82.65
2019-03-08T01:48:38.273Z,82.96
2019-03-08T01:49:38.258Z,82.76
2019-03-08T01:50:38.247Z,82.76
2019-03-08T01:51:38.247Z,82.79
2019-03-08T01:52:38.248Z,82.34
2019-03-08T01:53:38.216Z,81.42
2019-03-08T01:54:38.206Z,81.52
2019-03-08T01:55:38.194Z,81.42
2019-03-08T01:56:38.197Z,80.80
2019-03-08T01:57:38.172Z,81.01
2019-03-08T01:58:38.189Z,81.21
2019-03-08T01:59:38.149Z,80.91
2019-03-08T02:00:38.142Z,81.21
2019-03-08T02:01:38.142Z,81.01
2019-03-08T02:02:38.118Z,80.60
2019-03-08T02:03:38.107Z,79.57
2019-03-08T02:04:38.116Z,79.47
2019-03-08T02:05:38.088Z,79.16
2019-03-08T02:06:38.092Z,79.67
2019-03-08T02:07:38.065Z,80.39
2019-03-08T02:08:38.054Z,80.29
2019-03-08T02:09:38.046Z,79.88
2019-03-08T02:10:38.062Z,80.19
2019-03-08T02:11:38.032Z,79.88
2019-03-08T02:12:38.011Z,79.67
2019-03-08T02:13:38.001Z,79.47
2019-03-08T02:14:37.988Z,79.05
2019-03-08T02:15:37.984Z,79.88
2019-03-08T02:16:38.007Z,79.88
2019-03-08T02:17:37.956Z,79.36
2019-03-08T02:18:37.953Z,79.67
2019-03-08T02:19:37.939Z,79.67
2019-03-08T02:20:37.926Z,78.85
2019-03-08T02:21:37.925Z,79.57
2019-03-08T02:22:37.949Z,79.05
2019-03-08T02:23:37.890Z,79.16
2019-03-08T02:24:37.880Z,78.85
2019-03-08T02:25:37.877Z,78.61
2019-03-08T02:26:37.871Z,79.47
2019-03-08T02:27:37.847Z,80.08
2019-03-08T02:28:37.854Z,80.49
2019-03-08T02:29:39.153Z,80.60
2019-03-08T02:30:37.819Z,81.01
2019-03-08T02:31:37.817Z,81.73
2019-03-08T02:32:37.806Z,81.42
2019-03-08T02:33:37.783Z,81.46
2019-03-08T02:34:37.790Z,80.94
2019-03-08T02:35:37.762Z,81.32
2019-03-08T02:36:37.769Z,81.21
2019-03-08T02:37:37.739Z,81.01
2019-03-08T02:38:37.730Z,81.87
2019-03-08T02:39:37.717Z,81.83
2019-03-08T02:40:37.737Z,83.31
2019-03-08T02:41:37.706Z,83.76
2019-03-08T02:42:37.684Z,83.86
2019-03-08T02:43:37.673Z,83.65
2019-03-08T02:44:37.666Z,82.83
2019-03-08T02:45:37.652Z,82.63
2019-03-08T02:46:37.670Z,83.25
2019-03-08T02:47:37.631Z,83.65
2019-03-08T02:48:37.619Z,83.35
2019-03-08T02:49:37.622Z,82.32
2019-03-08T02:50:37.599Z,83.25
2019-03-08T02:51:37.591Z,82.83
2019-03-08T02:52:37.617Z,82.83
2019-03-08T02:53:37.566Z,83.04
2019-03-08T02:54:37.555Z,82.73
2019-03-08T02:55:37.545Z,81.97
2019-03-08T02:56:37.537Z,81.87
2019-03-08T02:57:37.543Z,81.97
2019-03-08T02:58:37.539Z,81.91
2019-03-08T02:59:37.500Z,82.63
2019-03-08T03:00:37.490Z,82.07
2019-03-08T03:01:37.479Z,81.29
2019-03-08T03:02:37.480Z,81.56
2019-03-08T03:03:37.459Z,81.25
2019-03-08T03:04:37.466Z,81.56
2019-03-08T03:05:37.437Z,81.67
2019-03-08T03:06:37.428Z,81.67
2019-03-08T03:07:37.425Z,82.32
2019-03-08T03:08:37.403Z,81.91
2019-03-08T03:09:37.393Z,82.21
2019-03-08T03:10:37.426Z,81.60
2019-03-08T03:11:37.371Z,81.70
2019-03-08T03:12:37.389Z,81.81
2019-03-08T03:13:37.349Z,81.70
2019-03-08T03:14:37.341Z,82.18
2019-03-08T03:15:37.327Z,82.01
2019-03-08T03:16:37.340Z,81.81
2019-03-08T03:17:37.318Z,81.19
2019-03-08T03:18:37.295Z,81.29
2019-03-08T03:19:37.297Z,81.19
2019-03-08T03:20:37.274Z,81.49
2019-03-08T03:21:37.270Z,81.60
2019-03-08T03:22:37.330Z,81.49
2019-03-08T03:23:37.242Z,80.88
2019-03-08T03:24:37.249Z,81.81
2019-03-08T03:25:37.222Z,81.49
2019-03-08T03:26:37.212Z,81.29
2019-03-08T03:27:37.220Z,81.39
2019-03-08T03:28:37.250Z,82.11
2019-03-08T03:29:37.181Z,81.19
2019-03-08T03:30:37.171Z,81.70
2019-03-08T03:31:37.158Z,82.21
2019-03-08T03:32:37.155Z,81.33
2019-03-08T03:33:37.174Z,81.70
2019-03-08T03:34:37.175Z,81.81
2019-03-08T03:35:37.115Z,81.60
2019-03-08T03:36:37.104Z,81.70
2019-03-08T03:37:37.094Z,81.19
2019-03-08T03:38:37.091Z,81.33
2019-03-08T03:39:37.105Z,81.09
2019-03-08T03:40:37.072Z,81.29
2019-03-08T03:41:37.049Z,81.39
2019-03-08T03:42:37.039Z,81.70
2019-03-08T03:43:37.041Z,81.33
2019-03-08T03:44:37.016Z,81.63
2019-03-08T03:45:37.027Z,81.70
2019-03-08T03:46:37.037Z,81.74
2019-03-08T03:47:36.985Z,82.25
2019-03-08T03:48:36.989Z,82.25
2019-03-08T03:49:36.960Z,82.25
2019-03-08T03:50:36.953Z,82.05
2019-03-08T03:51:36.949Z,81.84
2019-03-08T03:52:36.958Z,82.25
2019-03-08T03:53:36.938Z,82.67
2019-03-08T03:54:36.907Z,82.87
2019-03-08T03:55:36.920Z,82.67
2019-03-08T03:56:36.884Z,82.87
2019-03-08T03:57:36.878Z,82.25
2019-03-08T03:58:36.893Z,82.87
2019-03-08T03:59:36.852Z,82.87
2019-03-08T04:00:36.842Z,82.97
2019-03-08T04:01:36.833Z,82.56
2019-03-08T04:02:36.821Z,82.56
2019-03-08T04:03:36.821Z,82.56
2019-03-08T04:04:36.841Z,82.35
2019-03-08T04:05:36.795Z,82.83
2019-03-08T04:06:36.940Z,82.83
2019-03-08T04:07:36.771Z,82.87
2019-03-08T04:08:36.772Z,83.28
2019-03-08T04:09:36.745Z,83.28
2019-03-08T04:10:36.784Z,83.18
2019-03-08T04:11:36.726Z,83.70
2019-03-08T04:12:36.712Z,83.28
2019-03-08T04:13:36.711Z,83.28
2019-03-08T04:14:36.690Z,82.97
2019-03-08T04:15:36.680Z,83.39
2019-03-08T04:16:36.680Z,83.28
2019-03-08T04:17:36.689Z,82.77
2019-03-08T04:18:36.668Z,82.93
2019-03-08T04:19:36.638Z,82.77
2019-03-08T04:20:36.627Z,82.73
2019-03-08T04:21:36.615Z,83.04
2019-03-08T04:22:36.605Z,83.18
2019-03-08T04:23:36.648Z,83.39
2019-03-08T04:24:36.585Z,82.67
2019-03-08T04:25:36.572Z,82.73
2019-03-08T04:26:36.560Z,82.97
2019-03-08T04:27:36.550Z,82.67
2019-03-08T04:28:36.564Z,81.81
2019-03-08T04:29:36.529Z,81.39
2019-03-08T04:30:36.544Z,81.29
2019-03-08T04:31:36.509Z,80.57
2019-03-08T04:32:36.495Z,80.77
2019-03-08T04:33:36.496Z,80.77
2019-03-08T04:34:36.475Z,81.39
2019-03-08T04:35:36.463Z,81.81
2019-03-08T04:36:36.487Z,82.05
2019-03-08T04:37:36.442Z,81.60
2019-03-08T04:38:36.444Z,81.53
2019-03-08T04:39:36.420Z,82.25
2019-03-08T04:40:36.412Z,82.87
2019-03-08T04:41:36.399Z,82.56
2019-03-08T04:42:36.399Z,83.28
2019-03-08T04:43:36.412Z,83.07
2019-03-08T04:44:36.367Z,82.46
2019-03-08T04:45:36.356Z,83.28
2019-03-08T04:46:36.344Z,83.28
2019-03-08T04:47:36.338Z,83.07
2019-03-08T04:48:36.362Z,83.18
2019-03-08T04:49:36.379Z,83.22
2019-03-08T04:50:36.308Z,83.18
2019-03-08T04:51:36.290Z,83.39
2019-03-08T04:52:36.279Z,83.28
2019-03-08T04:53:36.268Z,83.39
2019-03-08T04:54:36.270Z,83.07
2019-03-08T04:55:36.281Z,83.18
2019-03-08T04:56:36.237Z,83.18
2019-03-08T04:57:36.226Z,83.07
2019-03-08T04:58:36.219Z,83.18
2019-03-08T04:59:36.227Z,83.39
2019-03-08T05:00:36.197Z,83.18
2019-03-08T05:01:36.216Z,83.28
2019-03-08T05:02:36.173Z,83.70
2019-03-08T05:03:36.162Z,83.18
2019-03-08T05:04:36.163Z,83.49
2019-03-08T05:05:36.139Z,83.32
2019-03-08T05:06:36.129Z,83.07
2019-03-08T05:07:36.143Z,83.49
2019-03-08T05:08:36.107Z,83.07
2019-03-08T05:09:36.108Z,83.18
2019-03-08T05:10:36.086Z,82.97
2019-03-08T05:11:36.076Z,83.28
2019-03-08T05:12:36.064Z,83.28
2019-03-08T05:13:36.081Z,83.18
2019-03-08T05:14:36.054Z,83.07
2019-03-08T05:15:36.034Z,83.18
2019-03-08T05:16:36.022Z,83.28
2019-03-08T05:17:36.010Z,83.18
2019-03-08T05:18:35.998Z,82.67
2019-03-08T05:19:36.031Z,82.35
2019-03-08T05:20:35.978Z,83.07
2019-03-08T05:21:35.969Z,83.07
2019-03-08T05:22:35.957Z,82.77
2019-03-08T05:23:35.949Z,82.25
2019-03-08T05:24:35.952Z,82.15
2019-03-08T05:25:35.938Z,81.95
2019-03-08T05:26:35.944Z,81.74
2019-03-08T05:27:35.903Z,81.84
2019-03-08T05:28:35.894Z,82.35
2019-03-08T05:29:35.892Z,82.35
2019-03-08T05:30:35.890Z,81.43
2019-03-08T05:31:35.861Z,81.43
2019-03-08T05:32:35.867Z,81.95
2019-03-08T05:33:35.888Z,81.49
2019-03-08T05:34:35.841Z,81.43
2019-03-08T05:35:35.839Z,81.74
2019-03-08T05:36:35.813Z,81.95
2019-03-08T05:37:35.797Z,82.05
2019-03-08T05:38:35.784Z,82.35
2019-03-08T05:39:35.835Z,81.74
2019-03-08T05:40:35.762Z,81.33
2019-03-08T05:41:35.758Z,81.70
2019-03-08T05:42:35.741Z,81.19
2019-03-08T05:43:35.732Z,81.49
2019-03-08T05:44:35.730Z,80.98
2019-03-08T05:45:35.730Z,81.49
2019-03-08T05:46:35.699Z,81.09
2019-03-08T05:47:35.694Z,80.67
2019-03-08T05:48:35.675Z,80.77
2019-03-08T05:49:35.698Z,80.77
2019-03-08T05:50:35.657Z,80.98
2019-03-08T05:51:35.700Z,80.57
2019-03-08T05:52:35.634Z,80.88
2019-03-08T05:53:35.646Z,80.67
2019-03-08T05:54:35.630Z,80.16
2019-03-08T05:55:35.604Z,80.33
2019-03-08T05:56:35.591Z,80.47
2019-03-08T05:57:35.630Z,79.85
2019-03-08T05:58:35.570Z,80.05
2019-03-08T05:59:35.557Z,80.16
2019-03-08T06:00:35.564Z,80.43
2019-03-08T06:01:35.536Z,80.67
2019-03-08T06:02:35.533Z,80.16
2019-03-08T06:03:35.528Z,80.26
2019-03-08T06:04:35.527Z,80.67
2019-03-08T06:05:35.511Z,80.36
2019-03-08T06:06:35.483Z,80.12
2019-03-08T06:07:35.473Z,80.36
2019-03-08T06:08:35.468Z,80.26
2019-03-08T06:09:35.449Z,79.95
2019-03-08T06:10:35.487Z,79.95
2019-03-08T06:11:35.431Z,80.05
2019-03-08T06:12:35.418Z,80.05
2019-03-08T06:13:35.420Z,79.64
2019-03-08T06:14:35.396Z,79.71
2019-03-08T06:15:35.407Z,79.40
2019-03-08T06:16:35.386Z,79.19
2019-03-08T06:17:35.385Z,79.54
2019-03-08T06:18:35.357Z,79.85
2019-03-08T06:19:35.371Z,79.75
2019-03-08T06:20:35.342Z,79.85
2019-03-08T06:21:35.322Z,79.61
2019-03-08T06:22:35.310Z,79.09
2019-03-08T06:23:35.364Z,78.78
2019-03-08T06:24:35.304Z,78.68
2019-03-08T06:25:35.292Z,78.68
2019-03-08T06:26:35.267Z,78.89
2019-03-08T06:27:35.256Z,78.44
2019-03-08T06:28:35.249Z,78.06
2019-03-08T06:29:35.246Z,78.33
2019-03-08T06:30:35.235Z,78.27
2019-03-08T06:31:35.236Z,78.37
2019-03-08T06:32:35.202Z,78.58
2019-03-08T06:33:35.190Z,78.68
2019-03-08T06:34:35.198Z,78.47
2019-03-08T06:35:35.200Z,78.06
2019-03-08T06:36:35.185Z,77.82
2019-03-08T06:37:35.147Z,77.72
2019-03-08T06:38:35.145Z,77.51
2019-03-08T06:39:35.136Z,77.10
2019-03-08T06:40:35.126Z,77.51
2019-03-08T06:41:35.102Z,77.51
2019-03-08T06:42:35.121Z,77.10
2019-03-08T06:43:35.084Z,77.00
2019-03-08T06:44:35.089Z,77.00
2019-03-08T06:45:35.089Z,77.72
2019-03-08T06:46:35.048Z,76.90
2019-03-08T06:47:35.043Z,77.41
2019-03-08T06:48:35.035Z,76.69
2019-03-08T06:49:35.048Z,76.48
2019-03-08T06:50:35.028Z,77.00
2019-03-08T06:51:35.000Z,76.55
2019-03-08T06:52:34.986Z,76.18
2019-03-08T06:53:34.974Z,75.93
2019-03-08T06:54:34.983Z,75.93
2019-03-08T06:55:34.981Z,75.63
2019-03-08T06:56:34.940Z,75.73
2019-03-08T06:57:34.980Z,75.73
2019-03-08T06:58:34.920Z,76.14
2019-03-08T06:59:34.908Z,76.14
2019-03-08T07:00:34.910Z,75.63
2019-03-08T07:01:34.946Z,75.21
2019-03-08T07:02:34.885Z,75.83
2019-03-08T07:03:34.866Z,75.38
2019-03-08T07:04:34.853Z,75.21
2019-03-08T07:05:34.855Z,75.49
2019-03-08T07:06:34.842Z,75.29
2019-03-08T07:07:34.860Z,75.38
2019-03-08T07:08:34.812Z,74.98
2019-03-08T07:09:34.807Z,75.08
2019-03-08T07:10:34.805Z,75.08
2019-03-08T07:11:34.784Z,74.91
2019-03-08T07:12:34.787Z,75.32
2019-03-08T07:13:34.758Z,75.38
2019-03-08T07:14:34.769Z,75.21
2019-03-08T07:15:34.752Z,75.01
2019-03-08T07:16:34.751Z,75.01
2019-03-08T07:17:34.716Z,75.42
2019-03-08T07:18:34.705Z,76.04
2019-03-08T07:19:40.626Z,75.63
2019-03-08T07:20:35.703Z,75.63
2019-03-08T07:21:34.682Z,75.73
2019-03-08T07:22:34.662Z,75.63
2019-03-08T07:23:34.650Z,75.63
2019-03-08T07:24:34.641Z,75.73
2019-03-08T07:25:34.634Z,76.25
2019-03-08T07:26:34.632Z,76.14
2019-03-08T07:27:34.661Z,75.83
2019-03-08T07:28:34.609Z,75.63
2019-03-08T07:29:34.589Z,75.83
2019-03-08T07:30:34.597Z,75.83
2019-03-08T07:31:34.589Z,75.63
2019-03-08T07:32:34.560Z,76.04
2019-03-08T07:33:34.549Z,75.83
2019-03-08T07:34:34.546Z,76.14
2019-03-08T07:35:34.533Z,76.76
2019-03-08T07:36:34.529Z,76.97
2019-03-08T07:37:34.501Z,76.25
2019-03-08T07:38:34.490Z,76.69
2019-03-08T07:39:34.500Z,76.25
2019-03-08T07:40:34.484Z,76.14
2019-03-08T07:41:34.496Z,76.25
2019-03-08T07:42:34.446Z,77.17
2019-03-08T07:43:34.435Z,76.55
2019-03-08T07:44:34.427Z,76.76
2019-03-08T07:45:34.416Z,76.25
2019-03-08T07:46:34.423Z,76.14
2019-03-08T07:47:34.437Z,75.63
2019-03-08T07:48:34.389Z,75.32
2019-03-08T07:49:34.381Z,75.52
2019-03-08T07:50:34.361Z,75.63
2019-03-08T07:51:34.359Z,75.38
2019-03-08T07:52:34.339Z,75.70
2019-03-08T07:53:34.350Z,75.29
2019-03-08T07:54:34.342Z,75.18
2019-03-08T07:55:34.309Z,75.29
2019-03-08T07:56:34.310Z,74.87
2019-03-08T07:57:34.307Z,75.18
2019-03-08T07:58:34.273Z,75.38
2019-03-08T07:59:34.283Z,75.29
2019-03-08T08:00:34.253Z,75.59
2019-03-08T08:01:34.260Z,75.21
2019-03-08T08:02:34.231Z,75.93
2019-03-08T08:03:34.220Z,75.63
2019-03-08T08:04:34.208Z,75.63
2019-03-08T08:05:34.227Z,76.14
2019-03-08T08:06:34.208Z,75.42
2019-03-08T08:07:34.191Z,75.49
2019-03-08T08:08:34.170Z,75.63
2019-03-08T08:09:34.163Z,76.21
2019-03-08T08:10:34.148Z,75.93
2019-03-08T08:11:34.152Z,75.93
2019-03-08T08:12:34.128Z,75.12
2019-03-08T08:13:34.143Z,75.18
2019-03-08T08:14:39.659Z,75.38
2019-03-08T08:15:35.092Z,75.70
2019-03-08T08:16:34.079Z,75.70
2019-03-08T08:17:34.082Z,75.70
2019-03-08T08:18:34.062Z,75.59
2019-03-08T08:19:34.110Z,75.08
2019-03-08T08:20:34.037Z,75.29
2019-03-08T08:21:34.029Z,75.80
2019-03-08T08:22:34.028Z,75.38
2019-03-08T08:23:35.301Z,74.94
2019-03-08T08:24:34.018Z,75.15
2019-03-08T08:25:37.023Z,75.18
2019-03-08T08:26:33.974Z,76.00
2019-03-08T08:27:33.973Z,75.90
2019-03-08T08:28:33.949Z,74.63
2019-03-08T08:29:35.190Z,74.94
2019-03-08T08:30:33.940Z,75.04
2019-03-08T08:31:33.918Z,74.84
2019-03-08T08:32:33.942Z,75.25
2019-03-08T08:33:33.895Z,74.43
2019-03-08T08:34:33.885Z,75.04
2019-03-08T08:35:33.872Z,75.25
2019-03-08T08:36:33.879Z,74.94
2019-03-08T08:37:33.861Z,73.81
2019-03-08T08:38:33.840Z,74.43
2019-03-08T08:39:33.829Z,75.15
2019-03-08T08:40:33.818Z,74.74
2019-03-08T08:41:33.806Z,75.04
2019-03-08T08:42:33.824Z,74.94
2019-03-08T08:43:33.798Z,74.43
2019-03-08T08:44:33.776Z,74.32
2019-03-08T08:45:33.766Z,75.35
2019-03-08T08:46:33.762Z,74.63
2019-03-08T08:47:33.753Z,74.84
2019-03-08T08:48:33.746Z,75.11
2019-03-08T08:49:33.738Z,75.83
2019-03-08T08:50:35.626Z,74.49
2019-03-08T08:51:33.699Z,74.40
2019-03-08T08:52:33.858Z,73.78
2019-03-08T08:53:33.677Z,73.36
2019-03-08T08:54:33.664Z,73.78
2019-03-08T08:55:33.691Z,74.91
2019-03-08T08:56:33.643Z,73.95
2019-03-08T08:57:33.632Z,73.88
2019-03-08T08:58:33.632Z,74.70
2019-03-08T08:59:33.612Z,74.49
2019-03-08T09:00:33.615Z,74.91
2019-03-08T09:01:33.596Z,75.01
2019-03-08T09:02:33.595Z,73.98
2019-03-08T09:03:33.596Z,74.49
2019-03-08T09:04:33.554Z,74.63
2019-03-08T09:05:33.545Z,74.60
2019-03-08T09:06:33.535Z,74.80
2019-03-08T09:07:33.522Z,74.77
2019-03-08T09:08:33.548Z,74.87
2019-03-08T09:09:33.500Z,75.18
2019-03-08T09:10:33.519Z,73.95
2019-03-08T09:11:33.478Z,73.64
2019-03-08T09:12:33.483Z,74.46
2019-03-08T09:13:33.476Z,73.85
2019-03-08T09:14:33.479Z,73.85
2019-03-08T09:15:33.455Z,73.74
2019-03-08T09:16:33.425Z,73.61
2019-03-08T09:17:33.417Z,73.74
2019-03-08T09:18:33.416Z,73.23
2019-03-08T09:19:33.411Z,73.91
2019-03-08T09:20:33.571Z,73.71
2019-03-08T09:21:33.371Z,73.91
2019-03-08T09:22:33.360Z,72.86
2019-03-08T09:23:33.367Z,72.24
2019-03-08T09:24:33.337Z,72.52
2019-03-08T09:25:33.326Z,71.90
2019-03-08T09:26:33.337Z,71.32
2019-03-08T09:27:33.304Z,71.18
2019-03-08T09:28:33.328Z,70.87
2019-03-08T09:29:41.045Z,71.28
2019-03-08T09:30:34.290Z,71.39
2019-03-08T09:31:33.283Z,71.18
2019-03-08T09:32:33.371Z,70.67
2019-03-08T09:33:33.263Z,71.18
2019-03-08T09:34:33.251Z,71.04
2019-03-08T09:35:33.285Z,71.04
2019-03-08T09:36:33.232Z,70.74
2019-03-08T09:37:33.242Z,71.66
2019-03-08T09:38:33.213Z,71.45
2019-03-08T09:39:33.239Z,70.94
2019-03-08T09:40:33.185Z,71.25
2019-03-08T09:41:33.153Z,71.56
2019-03-08T09:42:33.248Z,70.87
2019-03-08T09:43:33.163Z,71.66
2019-03-08T09:44:33.141Z,71.45
2019-03-08T09:45:33.119Z,70.74
2019-03-08T09:46:33.141Z,71.15
2019-03-08T09:47:33.094Z,70.64
2019-03-08T09:48:33.112Z,70.36
2019-03-08T09:49:33.070Z,71.86
2019-03-08T09:50:33.057Z,70.43
2019-03-08T09:51:33.057Z,70.43
2019-03-08T09:52:33.045Z,70.20
2019-03-08T09:53:33.033Z,69.24
2019-03-08T09:54:33.011Z,69.55
2019-03-08T09:55:33.008Z,70.06
2019-03-08T09:56:33.011Z,68.97
2019-03-08T09:57:32.989Z,69.79
2019-03-08T09:58:32.991Z,69.75
2019-03-08T09:59:32.968Z,69.96
2019-03-08T10:00:32.956Z,68.97
2019-03-08T10:01:32.991Z,68.55
2019-03-08T10:02:32.921Z,69.79
2019-03-08T10:03:32.924Z,70.29
2019-03-08T10:04:32.920Z,70.67
2019-03-08T10:05:32.890Z,69.45
2019-03-08T10:06:32.882Z,69.55
2019-03-08T10:07:32.871Z,69.24
2019-03-08T10:08:32.937Z,68.22
2019-03-08T10:09:32.884Z,68.52
2019-03-08T10:10:32.835Z,68.93
2019-03-08T10:11:32.889Z,70.20
2019-03-08T10:12:32.811Z,69.68
2019-03-08T10:13:32.807Z,70.50
2019-03-08T10:14:32.830Z,69.68
2019-03-08T10:15:32.792Z,69.89
2019-03-08T10:16:32.774Z,68.76
2019-03-08T10:17:32.760Z,68.87
2019-03-08T10:18:32.745Z,68.46
2019-03-08T10:19:32.772Z,68.87
2019-03-08T10:20:32.723Z,68.87
2019-03-08T10:21:32.735Z,68.76
2019-03-08T10:22:32.708Z,68.46
2019-03-08T10:23:32.691Z,68.12
2019-03-08T10:24:32.693Z,68.42
2019-03-08T10:25:32.683Z,65.44
2019-03-08T10:26:32.658Z,65.03
2019-03-08T10:27:38.077Z,64.69
2019-03-08T10:28:33.636Z,62.82
2019-03-08T10:29:32.634Z,63.19
2019-03-08T10:30:32.613Z,62.78
2019-03-08T10:31:32.615Z,62.36
2019-03-08T10:32:37.240Z,62.16
2019-03-08T10:33:33.618Z,62.87
2019-03-08T10:34:32.599Z,63.20
2019-03-08T10:35:32.560Z,62.93
2019-03-08T10:36:32.548Z,60.95
2019-03-08T10:37:32.582Z,60.50
2019-03-08T10:38:32.528Z,60.60
2019-03-08T10:39:32.535Z,59.37
2019-03-08T10:40:32.505Z,59.73
2019-03-08T10:41:32.504Z,57.34
2019-03-08T10:42:32.514Z,58.20
2019-03-08T10:43:32.522Z,56.47
2019-03-08T10:44:32.487Z,59.07
2019-03-08T10:45:32.450Z,61.91
2019-03-08T10:46:32.444Z,62.88
2019-03-08T10:47:32.428Z,63.90
2019-03-08T10:48:32.417Z,62.20
2019-03-08T10:49:32.414Z,57.71
2019-03-08T10:50:32.425Z,55.27
2019-03-08T10:51:32.402Z,54.46
2019-03-08T10:52:32.415Z,54.36
2019-03-08T10:53:32.369Z,54.51
2019-03-08T10:54:32.351Z,54.51
2019-03-08T10:55:32.357Z,55.25
2019-03-08T10:56:32.330Z,58.64
2019-03-08T10:57:32.319Z,58.65
2019-03-08T10:58:32.321Z,56.92
2019-03-08T10:59:32.320Z,55.52
2019-03-08T11:00:32.320Z,54.61
2019-03-08T11:01:32.300Z,51.86
2019-03-08T11:02:32.276Z,51.48
2019-03-08T11:03:32.257Z,52.21
2019-03-08T11:04:32.287Z,53.42
2019-03-08T11:05:32.253Z,54.97
2019-03-08T11:06:32.224Z,55.17
2019-03-08T11:07:32.271Z,56.52
2019-03-08T11:08:32.206Z,57.82
2019-03-08T11:09:32.201Z,60.28
2019-03-08T11:10:32.211Z,61.22
2019-03-08T11:11:32.193Z,63.19
2019-03-08T11:12:32.170Z,62.78
2019-03-08T11:13:32.190Z,62.61
2019-03-08T11:14:32.146Z,62.43
2019-03-08T11:15:32.165Z,63.15
2019-03-08T11:16:32.125Z,63.12
2019-03-08T11:17:32.100Z,61.38
2019-03-08T11:18:32.089Z,62.24
2019-03-08T11:19:32.083Z,62.59
2019-03-08T11:20:32.211Z,61.04
2019-03-08T11:21:32.079Z,58.78
2019-03-08T11:22:32.048Z,59.86
2019-03-08T11:23:32.040Z,56.44
2019-03-08T11:24:32.023Z,52.48
2019-03-08T11:25:34.914Z,50.72
2019-03-08T11:26:32.014Z,50.87
2019-03-08T11:27:31.999Z,48.37
2019-03-08T11:28:31.981Z,47.19
2019-03-08T11:29:31.969Z,49.13
2019-03-08T11:30:31.969Z,47.15
2019-03-08T11:31:31.946Z,46.14
2019-03-08T11:32:31.995Z,45.18
2019-03-08T11:33:31.957Z,47.20
2019-03-08T11:34:31.918Z,46.24
2019-03-08T11:35:31.918Z,44.95
2019-03-08T11:36:31.934Z,47.80
2019-03-08T11:37:31.890Z,48.31
2019-03-08T11:38:31.873Z,48.25
2019-03-08T11:39:31.860Z,49.62
2019-03-08T11:40:31.882Z,49.66
2019-03-08T11:41:31.894Z,46.07
2019-03-08T11:42:31.868Z,45.53
2019-03-08T11:43:31.826Z,47.64
2019-03-08T11:44:31.804Z,47.41
2019-03-08T11:45:31.798Z,49.30
2019-03-08T11:46:31.800Z,49.88
2019-03-08T11:47:31.789Z,52.88
2019-03-08T11:48:31.795Z,53.11
2019-03-08T11:49:31.773Z,56.58
2019-03-08T11:50:31.742Z,54.87
2019-03-08T11:51:31.741Z,53.72
2019-03-08T11:52:31.745Z,50.86
2019-03-08T11:53:31.721Z,48.46
2019-03-08T11:54:40.383Z,48.02
2019-03-08T11:55:32.687Z,48.36
2019-03-08T11:56:31.795Z,47.92
2019-03-08T11:57:31.667Z,48.10
2019-03-08T11:58:31.657Z,50.88
2019-03-08T11:59:31.642Z,49.22
2019-03-08T12:00:31.630Z,52.00
2019-03-08T12:01:31.711Z,51.61
2019-03-08T12:02:37.798Z,51.72
2019-03-08T12:03:32.619Z,53.75
2019-03-08T12:04:31.588Z,51.57
2019-03-08T12:05:31.653Z,51.12
2019-03-08T12:06:31.582Z,48.69
2019-03-08T12:07:31.609Z,47.50
2019-03-08T12:08:31.567Z,48.49
2019-03-08T12:09:31.544Z,47.11
2019-03-08T12:10:31.522Z,46.28
2019-03-08T12:11:31.642Z,47.26
2019-03-08T12:12:31.499Z,45.08
2019-03-08T12:13:32.325Z,43.46
2019-03-08T12:14:31.525Z,45.12
2019-03-08T12:15:31.468Z,46.22
2019-03-08T12:16:31.496Z,45.51
2019-03-08T12:17:31.447Z,45.85
2019-03-08T12:18:31.459Z,43.59
2019-03-08T12:19:31.423Z,43.66
2019-03-08T12:20:31.431Z,43.14
2019-03-08T12:21:31.411Z,45.18
2019-03-08T12:22:31.404Z,44.57
2019-03-08T12:23:31.380Z,43.46
2019-03-08T12:24:31.395Z,41.14
2019-03-08T12:25:31.432Z,41.89
2019-03-08T12:26:31.382Z,41.16
2019-03-08T12:27:31.342Z,41.02
2019-03-08T12:28:31.348Z,42.41
2019-03-08T12:29:31.324Z,41.55
2019-03-08T12:30:31.303Z,41.85
2019-03-08T12:31:31.327Z,40.41
2019-03-08T12:32:31.325Z,43.14
2019-03-08T12:33:31.275Z,41.50
2019-03-08T12:34:31.263Z,40.78
2019-03-08T12:35:31.253Z,42.55
2019-03-08T12:36:31.253Z,43.44
2019-03-08T12:37:31.228Z,38.62
2019-03-08T12:38:31.267Z,40.05
2019-03-08T12:39:31.212Z,40.14
2019-03-08T12:40:31.197Z,41.75
2019-03-08T12:41:31.215Z,39.50
2019-03-08T12:42:31.222Z,39.78
2019-03-08T12:43:31.164Z,40.28
2019-03-08T12:44:31.167Z,40.00
2019-03-08T12:45:31.156Z,40.58
2019-03-08T12:46:31.211Z,39.86
2019-03-08T12:47:31.122Z,39.39
2019-03-08T12:48:31.154Z,38.82
2019-03-08T12:49:31.097Z,41.08
2019-03-08T12:50:31.086Z,41.77
2019-03-08T12:51:31.092Z,43.16
2019-03-08T12:52:31.068Z,40.78